Latest Weather Observations for Hindmarsh Island

IDS60901

Issued at 7:21 am CST Tuesday 7 April 2020 (issued every 10 minutes, with the page automatically refreshed every 10 minutes)

About weather observations | Map of Adelaide area stations | Latest observations for Adelaide area | Other Formats
Station Details ID: 023894 Name: HINDMARSH ISLAND AWS Lat: -35.52 Lon: 138.82 Height: 11.0 m
Data from the previous 72 hours. | See also: Recent months at Hindmarsh Island
Date/Time
CST
Temp
°C
App
Temp
°C
Dew
Point
°C
Rel
Hum
%
Delta-T
°C
Wind Press
QNH
hPa
Press
MSL
hPa
Rain since
9am
mm
Dir  Spd
km/h
Gust
km/h
Spd
kts
Gust
kts
07/07:00am 14.5 15.2 12.2 86 1.2 CALM 0 6 0 3 1023.1 1023.1 1.4
07/06:30am 14.4 15.1 12.1 86 1.2 CALM 0 0 0 0 1022.8 1022.8 1.4
07/06:00am 14.4 14.3 12.1 86 1.2 NE 4 6 2 3 1022.6 1022.6 1.4
07/05:30am 14.1 13.9 11.8 86 1.2 NE 4 6 2 3 1022.4 1022.4 1.4
07/05:00am 14.1 13.3 11.8 86 1.2 NE 7 9 4 5 1022.2 1022.2 1.4
07/04:30am 14.1 13.4 12.0 87 1.1 ENE 7 9 4 5 1022.2 1022.2 1.4
07/04:00am 14.3 13.7 12.2 87 1.1 NE 7 9 4 5 1022.1 1022.1 1.4
07/03:30am 14.4 13.1 12.4 88 1.1 NE 11 11 6 6 1021.9 1021.9 1.4
07/03:00am 14.6 14.1 12.5 87 1.1 NE 7 9 4 5 1022.2 1022.2 1.4
07/02:30am 14.5 13.5 12.2 86 1.2 NE 9 13 5 7 1022.3 1022.3 1.4
07/02:00am 14.6 14.0 12.3 86 1.3 NNE 7 9 4 5 1022.4 1022.4 1.4
07/01:30am 14.6 13.6 12.3 86 1.2 NE 9 11 5 6 1022.6 1022.6 1.4
07/01:00am 14.8 13.9 12.5 86 1.3 NNE 9 11 5 6 1022.6 1022.6 1.4
07/12:30am 14.9 13.9 12.4 85 1.4 N 9 11 5 6 1022.7 1022.7 1.4
07/12:00am 14.8 15.6 12.5 86 1.3 CALM 0 7 0 4 1023.0 1023.0 1.4
 
Date/Time
CST
Temp
°C
App
Temp
°C
Dew
Point
°C
Rel
Hum
%
Delta-T
°C
Wind Press
QNH
hPa
Press
MSL
hPa
Rain since
9am
mm
Dir  Spd
km/h
Gust
km/h
Spd
kts
Gust
kts
06/11:30pm 14.7 13.7 12.2 85 1.4 NE 9 11 5 6 1023.0 1023.0 1.4
06/11:00pm 15.0 14.0 12.3 84 1.5 N 9 9 5 5 1023.4 1023.4 1.0
06/10:30pm 14.9 13.8 12.0 83 1.6 N 9 13 5 7 1023.4 1023.4 0.4
06/10:00pm 14.7 13.8 11.3 80 1.8 E 7 9 4 5 1023.2 1023.2 0.4
06/09:30pm 14.9 14.0 11.5 80 1.8 E 7 9 4 5 1023.1 1023.1 0.4
06/09:00pm 15.4 14.2 11.6 78 2.0 SE 9 11 5 6 1023.1 1023.1 0.4
06/08:30pm 15.9 14.8 12.1 78 2.1 SSE 9 13 5 7 1023.0 1023.0 0.4
06/08:00pm 15.9 14.4 11.9 77 2.2 SSE 11 13 6 7 1022.7 1022.7 0.4
06/07:30pm 15.8 14.3 11.8 77 2.2 S 11 13 6 7 1022.7 1022.7 0.4
06/07:00pm 15.9 14.7 11.5 75 2.4 SSE 9 11 5 6 1022.5 1022.5 0.4
06/06:30pm 16.2 14.6 11.6 74 2.5 SSE 11 13 6 7 1022.3 1022.3 0.4
06/06:00pm 16.5 14.2 11.9 74 2.5 SSE 15 17 8 9 1022.0 1022.0 0.4
06/05:30pm 16.7 15.1 11.4 71 2.9 S 11 15 6 8 1022.0 1022.0 0.4
06/05:00pm 17.3 15.3 11.6 69 3.1 S 13 15 7 8 1021.9 1021.9 0.4
06/04:30pm 17.5 15.7 12.0 70 3.0 S 13 17 7 9 1021.8 1021.8 0.4
06/04:00pm 17.9 16.8 11.9 68 3.3 SSE 9 13 5 7 1021.7 1021.7 0.4
06/03:30pm 17.5 16.3 11.5 68 3.3 SSW 9 13 5 7 1021.8 1021.8 0.4
06/03:00pm 17.5 15.8 11.3 67 3.3 SSW 11 15 6 8 1021.9 1021.9 0.4
06/02:30pm 17.6 15.4 10.9 65 3.6 S 13 15 7 8 1021.9 1021.9 0.4
06/02:00pm 17.5 14.9 10.6 64 3.7 SSE 15 19 8 10 1021.8 1021.8 0.4
06/01:30pm 17.8 15.0 9.9 60 4.2 S 15 17 8 9 1021.9 1021.9 0.4
06/01:00pm 18.0 16.1 10.4 61 4.1 SSE 11 15 6 8 1022.2 1022.2 0.4
06/12:30pm 17.8 16.0 10.9 64 3.7 S 11 15 6 8 1022.5 1022.5 0.4
06/12:00pm 17.8 16.2 11.6 67 3.4 S 11 13 6 7 1022.5 1022.5 0.4
06/11:30am 17.6 16.9 12.1 70 3.0 SE 7 9 4 5 1022.8 1022.8 0.4
06/11:00am 17.4 17.0 12.9 75 2.5 SSE 7 9 4 5 1022.9 1022.9 0.4
06/10:30am 16.4 16.3 12.2 76 2.3 SSE 4 7 2 4 1023.0 1023.0 0.4
06/10:00am 16.1 15.6 12.7 80 1.9 NE 7 11 4 6 1023.0 1023.0 0.4
06/09:30am 15.9 15.6 13.4 85 1.4 NNE 7 11 4 6 1023.1 1023.1 0.4
06/09:00am 15.3 14.8 12.6 84 1.5 NNW 7 11 4 6 1023.0 1023.0 8.6
06/08:30am 15.3 14.9 13.0 86 1.3 N 7 9 4 5 1022.9 1022.9 8.6
06/08:00am 14.5 13.6 12.7 89 1.0 N 9 11 5 6 1022.6 1022.6 8.6
06/07:30am 14.1 13.4 12.0 87 1.1 N 7 11 4 6 1022.2 1022.2 8.4
06/07:00am 14.2 13.1 11.9 86 1.2 N 9 13 5 7 1021.6 1021.6 7.2
06/06:30am 14.2 13.5 11.5 84 1.4 ENE 6 9 3 5 1021.3 1021.3 7.2
06/06:00am 14.4 13.8 11.7 84 1.4 E 6 7 3 4 1020.9 1020.9 7.2
06/05:30am 14.7 12.8 11.8 83 1.6 S 13 17 7 9 1020.4 1020.4 7.2
06/05:00am 14.7 13.6 12.0 84 1.5 SSE 9 15 5 8 1019.9 1019.9 7.2
06/04:30am 14.7 12.4 11.8 83 1.6 SSW 15 19 8 10 1019.6 1019.6 7.2
06/04:00am 14.3 11.9 11.3 82 1.6 SSW 15 19 8 10 1019.4 1019.4 7.2
06/03:30am 14.0 11.6 11.5 85 1.3 SSW 15 20 8 11 1019.4 1019.4 7.2
06/03:00am 14.2 13.5 12.1 87 1.1 W 7 9 4 5 1019.5 1019.5 7.0
06/02:30am 14.0 12.9 11.9 87 1.1 ENE 9 11 5 6 1019.3 1019.3 7.0
06/02:00am 14.1 13.4 12.0 87 1.1 SW 7 11 4 6 1019.3 1019.3 6.8
06/01:30am 14.0 11.0 11.9 87 1.1 SSW 19 24 10 13 1019.4 1019.4 6.8
06/01:00am 14.6 12.5 12.3 86 1.3 WNW 15 20 8 11 1019.3 1019.3 6.2
06/12:30am 14.9 13.1 12.2 84 1.5 W 13 20 7 11 1019.2 1019.2 6.0
06/12:00am 14.4 11.8 11.9 85 1.3 SSW 17 19 9 10 1019.1 1019.1 6.0
 
Date/Time
CST
Temp
°C
App
Temp
°C
Dew
Point
°C
Rel
Hum
%
Delta-T
°C
Wind Press
QNH
hPa
Press
MSL
hPa
Rain since
9am
mm
Dir  Spd
km/h
Gust
km/h
Spd
kts
Gust
kts
05/11:35pm 14.7 12.2 12.2 85 1.4 W 17 39 9 21 1019.0 1019.0 6.0
05/11:30pm 14.8 13.1 12.5 86 1.3 WNW 13 17 7 9 1019.1 1019.1 6.0
05/11:00pm 15.2 12.0 12.0 81 1.7 SW 20 28 11 15 1019.1 1019.1 6.0
05/10:30pm 15.1 12.1 12.4 84 1.5 SW 20 26 11 14 1019.1 1019.1 6.0
05/10:00pm 14.7 11.0 12.6 87 1.1 WSW 24 37 13 20 1018.9 1018.9 5.8
05/09:30pm 15.6 11.1 12.7 83 1.6 SW 28 37 15 20 1018.6 1018.6 4.6
05/09:00pm 15.8 12.8 12.5 81 1.8 WSW 20 28 11 15 1018.2 1018.2 4.6
05/08:30pm 15.9 11.7 12.3 79 2.0 WSW 26 35 14 19 1017.9 1017.9 4.6
05/08:00pm 15.6 11.1 12.5 82 1.7 SW 28 37 15 20 1017.6 1017.6 4.6
05/07:30pm 15.9 10.4 12.3 79 2.0 WSW 33 44 18 24 1017.1 1017.1 4.6
05/07:00pm 16.0 11.9 12.6 80 1.9 WSW 26 41 14 22 1016.7 1016.7 4.6
05/06:30pm 16.1 11.3 13.0 82 1.7 WSW 30 41 16 22 1016.3 1016.3 4.6
05/06:00pm 16.4 13.7 12.9 80 1.9 W 19 28 10 15 1016.2 1016.2 4.6
05/05:30pm 16.1 12.9 13.0 82 1.7 WSW 22 33 12 18 1015.8 1015.8 4.6
05/05:00pm 15.6 11.1 12.7 83 1.6 WSW 28 41 15 22 1015.7 1015.7 4.4
05/04:49pm 16.5 12.2 13.2 81 1.8 SW 28 46 15 25 1015.6 1015.6 4.4
05/04:30pm 16.6 13.6 13.7 83 1.6 WSW 22 32 12 17 1015.5 1015.5 4.4
05/04:00pm 16.1 13.1 13.8 86 1.3 WNW 22 32 12 17 1015.2 1015.2 4.4
05/03:30pm 16.4 13.5 13.9 85 1.4 W 22 30 12 16 1015.3 1015.3 2.8
05/03:00pm 16.8 12.1 13.1 79 2.1 W 30 41 16 22 1015.1 1015.1 1.6
05/02:30pm 16.5 12.6 13.2 81 1.8 W 26 43 14 23 1014.8 1014.8 1.6
05/02:07pm 16.0 10.2 12.7 81 1.8 WSW 35 54 19 29 1014.7 1014.7 1.0
05/02:00pm 18.3 13.6 12.1 67 3.4 W 28 37 15 20 1014.7 1014.7 0.0
05/01:30pm 17.9 12.2 11.9 68 3.3 W 33 46 18 25 1014.6 1014.6 0.0
05/01:17pm 19.1 13.3 10.9 59 4.5 W 32 50 17 27 1014.4 1014.4 0.0
05/01:00pm 20.0 13.7 11.2 57 4.8 W 35 48 19 26 1014.4 1014.4 0.0
05/12:45pm 19.0 13.1 10.6 58 4.5 W 32 54 17 29 1014.4 1014.4 0.0
05/12:30pm 19.4 13.5 10.4 56 4.8 W 32 44 17 24 1014.5 1014.5 0.0
05/12:00pm 19.1 12.6 10.4 57 4.7 W 35 48 19 26 1014.6 1014.6 0.0
05/11:30am 19.0 12.8 10.0 56 4.8 W 33 44 18 24 1014.6 1014.6 0.0
05/11:12am 19.4 13.1 9.6 53 5.2 W 33 52 18 28 1014.6 1014.6 0.0
05/11:00am 18.8 12.5 9.6 55 4.9 W 33 50 18 27 1014.7 1014.7 0.0
05/10:30am 18.9 12.1 9.4 54 5.0 W 35 48 19 26 1014.7 1014.7 0.0
05/10:00am 18.2 11.0 9.0 55 4.8 W 37 50 20 27 1014.7 1014.7 0.0
05/09:37am 17.8 11.6 9.2 57 4.5 W 32 50 17 27 1014.7 1014.7 0.0
05/09:30am 18.0 12.7 9.9 59 4.3 W 28 44 15 24 1014.8 1014.8 0.0
05/09:00am 17.3 11.1 9.5 60 4.1 W 32 41 17 22 1014.6 1014.6 0.0
05/08:30am 16.7 10.9 9.4 62 3.8 W 30 43 16 23 1014.5 1014.5 0.0
05/08:00am 16.4 11.0 9.6 64 3.5 W 28 41 15 22 1014.4 1014.4 0.0
05/07:30am 15.6 10.2 9.5 67 3.2 W 28 37 15 20 1014.0 1014.0 0.0
05/07:00am 15.0 10.3 9.1 68 3.0 W 24 35 13 19 1013.6 1013.6 0.0
05/06:30am 14.7 10.4 9.3 70 2.8 W 22 35 12 19 1013.2 1013.2 0.0
05/06:00am 14.6 9.1 9.0 69 2.9 W 28 35 15 19 1013.0 1013.0 0.0
05/05:30am 14.6 9.8 8.8 68 2.9 W 24 33 13 18 1012.8 1012.8 0.0
05/05:00am 14.8 9.2 8.7 67 3.1 W 28 39 15 21 1012.5 1012.5 0.0
05/04:30am 14.9 9.2 8.4 65 3.3 W 28 41 15 22 1012.2 1012.2 0.0
05/04:00am 14.6 9.1 7.6 63 3.5 W 26 35 14 19 1012.2 1012.2 0.0
05/03:30am 14.1 9.4 7.6 65 3.2 W 22 30 12 16 1012.2 1012.2 0.0
05/03:00am 14.1 8.3 7.9 66 3.1 W 28 35 15 19 1012.3 1012.3 0.0
05/03:30am 13.7 9.5 8.3 70 2.7 W 20 30 11 16 1012.5 1012.5 0.0
05/03:00am 13.8 9.5 8.0 68 2.9 W 20 30 11 16 1012.7 1012.7 0.0
05/02:30am 13.8 9.6 8.2 69 2.8 WNW 20 28 11 15 1012.9 1012.9 0.0
05/02:00am 13.4 8.7 7.8 69 2.8 WNW 22 28 12 15 1013.0 1013.0 0.0
05/01:30am 13.5 9.0 8.4 71 2.5 WNW 22 28 12 15 1013.1 1013.1 0.0
05/01:00am 13.4 9.1 8.0 70 2.7 WNW 20 28 11 15 1013.0 1013.0 0.0
05/12:30am 13.1 9.0 8.0 71 2.5 WNW 19 26 10 14 1013.3 1013.3 0.0
05/12:00am 13.3 9.2 8.0 70 2.6 WNW 19 24 10 13 1013.3 1013.3 0.0
 
Date/Time
CST
Temp
°C
App
Temp
°C
Dew
Point
°C
Rel
Hum
%
Delta-T
°C
Wind Press
QNH
hPa
Press
MSL
hPa
Rain since
9am
mm
Dir  Spd
km/h
Gust
km/h
Spd
kts
Gust
kts
04/11:30pm 13.8 8.8 8.2 69 2.8 W 24 30 13 16 1013.4 1013.4 0.0
04/11:00pm 13.5 9.2 7.9 69 2.8 W 20 26 11 14 1013.5 1013.5 0.0
04/10:30pm 14.2 10.1 8.8 70 2.7 W 20 30 11 16 1013.5 1013.5 0.0
04/10:00pm 14.3 9.3 8.0 66 3.1 W 24 35 13 19 1013.4 1013.4 0.0
04/09:30pm 14.0 9.0 8.2 68 2.9 W 24 32 13 17 1013.1 1013.1 0.0
04/09:00pm 14.3 9.4 8.5 68 2.9 W 24 32 13 17 1013.0 1013.0 0.0
04/08:30pm 14.4 9.2 8.8 69 2.8 W 26 39 14 21 1012.8 1012.8 0.0
04/08:02pm 14.5 9.1 9.5 72 2.6 WSW 28 46 15 25 1012.4 1012.4 0.0
04/08:00pm 14.6 9.9 9.4 71 2.7 WSW 24 37 13 20 1012.4 1012.4 0.0
04/07:32pm 14.8 9.6 8.7 67 3.1 W 26 50 14 27 1012.3 1012.3 0.0
04/07:30pm 14.9 9.7 8.8 67 3.1 W 26 50 14 27 1012.1 1012.1 0.0
04/07:00pm 15.1 8.5 8.6 65 3.3 WSW 33 44 18 24 1011.7 1011.7 0.0
04/06:30pm 15.3 7.9 9.7 69 2.9 SW 39 52 21 28 1011.2 1011.2 0.0
04/06:23pm 15.6 9.0 8.4 62 3.6 WSW 33 52 18 28 1011.1 1011.1 0.0
04/06:00pm 15.7 9.2 8.2 61 3.8 SW 32 44 17 24 1010.7 1010.7 0.0
04/05:55pm 15.6 8.6 8.6 63 3.6 SW 35 54 19 29 1010.7 1010.7 0.0
04/05:30pm 15.9 7.2 8.6 62 3.7 SW 44 57 24 31 1010.5 1010.5 0.0
04/05:00pm 15.3 6.9 9.0 66 3.2 SW 43 56 23 30 1010.2 1010.2 0.0
04/04:35pm 16.4 8.6 9.8 65 3.5 WSW 41 59 22 32 1010.0 1010.0 0.0
04/04:30pm 15.8 7.4 9.5 66 3.3 WSW 44 59 24 32 1009.9 1009.9 0.0
04/04:04pm 17.5 11.2 9.7 60 4.1 WSW 33 52 18 28 1009.7 1009.7 0.0
04/04:00pm 16.8 10.5 9.7 63 3.7 WSW 33 44 18 24 1009.8 1009.8 0.0
04/03:30pm 16.6 9.1 9.3 62 3.8 WSW 39 57 21 31 1009.4 1009.4 0.0
04/03:00pm 17.1 10.2 8.8 58 4.3 WSW 35 56 19 30 1009.1 1009.1 0.0
04/02:30pm 15.9 7.7 8.2 60 3.9 WSW 41 61 22 33 1008.9 1008.9 0.0
04/02:02pm 16.3 9.6 9.5 64 3.5 WSW 35 57 19 31 1009.0 1009.0 0.0
04/02:00pm 16.2 8.9 8.9 62 3.7 WSW 37 52 20 28 1009.0 1009.0 0.0
04/01:30pm 18.0 9.5 9.1 56 4.6 SW 44 59 24 32 1008.7 1008.7 0.0
04/01:09pm 18.0 10.3 8.6 54 4.9 WSW 39 57 21 31 1008.9 1008.9 0.0
04/01:00pm 17.9 9.4 8.7 55 4.8 SW 43 59 23 32 1008.7 1008.7 0.0
04/12:43pm 17.4 9.9 8.0 54 4.8 WSW 37 56 20 30 1008.9 1008.9 0.0
04/12:30pm 16.8 9.6 9.0 60 4.0 WSW 37 50 20 27 1009.0 1009.0 0.0
04/12:00pm 17.4 10.4 8.3 55 4.7 WSW 35 52 19 28 1008.8 1008.8 0.0
04/11:30am 16.3 10.0 9.7 65 3.5 WSW 33 46 18 25 1008.7 1008.7 0.0
04/11:00am 16.6 9.6 8.6 59 4.1 WSW 35 54 19 29 1008.7 1008.7 0.0
04/10:30am 15.5 8.3 7.5 59 4.0 WSW 35 57 19 31 1008.5 1008.5 0.0
04/10:21am 15.5 8.5 8.5 63 3.5 WSW 35 57 19 31 1008.4 1008.4 0.0
04/10:00am 15.0 8.6 8.5 65 3.3 WSW 32 46 17 25 1008.5 1008.5 0.0
04/09:30am 14.2 7.9 9.0 71 2.6 W 32 48 17 26 1008.0 1008.0 0.0
04/09:03am 14.1 7.4 9.5 74 2.4 WSW 35 54 19 29 1007.8 1007.8 0.0
04/09:00am 13.8 6.5 8.8 72 2.5 WSW 37 54 20 29 1007.6 1007.6 14.6
04/08:55am 13.4 6.4 8.5 72 2.4 WSW 35 54 19 29 1007.5 1007.5 14.6
04/08:30am 13.3 6.9 8.4 72 2.4 W 32 43 17 23 1007.2 1007.2 14.6

Latest Capital City Observations: Canberra | Sydney | Melbourne | Brisbane | Adelaide | Perth | Hobart | Darwin

Other formats

Comma delimited format used in spreadsheet applications
http://www.bom.gov.au/fwo/IDS60901/IDS60901.94677.axf

JavaScript Object Notation format (JSON) in row-major order
http://www.bom.gov.au/fwo/IDS60901/IDS60901.94677.json

Data quality

Most of these data are generated automatically and are frequently updated. Quality checks on data are not normally performed. It is possible for incorrect values to appear. Refer to information at About Latest Weather Observations and please check the disclaimer before using these data.